createdAt,value
2017-10-30T00:01:01.643Z,93.30
2017-10-30T00:03:29.195Z,93.40
2017-10-30T00:05:56.736Z,93.40
2017-10-30T00:08:24.284Z,93.20
2017-10-30T00:10:51.811Z,93.20
2017-10-30T00:13:19.387Z,93.20
2017-10-30T00:15:46.910Z,93.10
2017-10-30T00:18:14.459Z,93.10
2017-10-30T00:20:42.001Z,92.80
2017-10-30T00:23:09.530Z,92.90
2017-10-30T00:25:37.065Z,93.00
2017-10-30T00:28:04.654Z,92.80
2017-10-30T00:30:32.590Z,92.80
2017-10-30T00:33:00.119Z,92.80
2017-10-30T00:35:27.672Z,92.70
2017-10-30T00:37:55.594Z,92.90
2017-10-30T00:40:23.121Z,92.90
2017-10-30T00:42:50.668Z,93.00
2017-10-30T00:45:18.198Z,92.90
2017-10-30T00:47:45.746Z,92.90
2017-10-30T00:50:13.273Z,93.00
2017-10-30T00:52:40.820Z,93.00
2017-10-30T00:55:08.377Z,93.10
2017-10-30T00:57:35.931Z,93.00
2017-10-30T01:00:03.852Z,93.00
2017-10-30T01:02:31.386Z,93.00
2017-10-30T01:04:58.941Z,93.00
2017-10-30T01:07:26.859Z,93.10
2017-10-30T01:09:54.404Z,93.10
2017-10-30T01:12:21.950Z,93.00
2017-10-30T01:14:49.489Z,92.90
2017-10-30T01:17:17.021Z,93.20
2017-10-30T01:19:44.572Z,93.40
2017-10-30T01:22:12.112Z,93.60
2017-10-30T01:24:39.634Z,93.30
2017-10-30T01:27:07.572Z,93.30
2017-10-30T01:29:35.099Z,93.30
2017-10-30T01:32:02.650Z,93.30
2017-10-30T01:34:30.570Z,93.10
2017-10-30T01:36:58.116Z,93.10
2017-10-30T01:39:25.643Z,93.00
2017-10-30T01:41:53.209Z,92.60
2017-10-30T01:44:20.739Z,92.50
2017-10-30T01:46:48.264Z,92.90
2017-10-30T01:49:15.805Z,93.10
2017-10-30T01:51:43.342Z,92.80
2017-10-30T01:54:10.885Z,93.10
2017-10-30T01:56:38.405Z,93.00
2017-10-30T01:59:05.950Z,93.20
2017-10-30T02:01:33.490Z,93.20
2017-10-30T02:04:01.042Z,93.20
2017-10-30T02:06:28.558Z,93.40
2017-10-30T02:08:56.471Z,93.50
2017-10-30T02:11:24.011Z,93.50
2017-10-30T02:13:51.923Z,92.90
2017-10-30T02:16:19.477Z,92.90
2017-10-30T02:18:47.002Z,93.10
2017-10-30T02:21:14.551Z,94.30
2017-10-30T02:23:42.077Z,94.40
2017-10-30T02:26:10.034Z,94.30
2017-10-30T02:28:37.566Z,94.40
2017-10-30T02:31:05.091Z,94.40
2017-10-30T02:33:33.041Z,94.30
2017-10-30T02:36:00.563Z,94.30
2017-10-30T02:38:28.101Z,93.90
2017-10-30T02:40:55.662Z,94.00
2017-10-30T02:43:23.197Z,94.00
2017-10-30T02:45:50.733Z,94.10
2017-10-30T02:48:18.702Z,94.30
2017-10-30T02:50:46.256Z,94.30
2017-10-30T02:53:13.782Z,94.80
2017-10-30T02:55:41.318Z,94.80
2017-10-30T02:58:08.847Z,94.30
2017-10-30T03:00:36.425Z,94.10
2017-10-30T03:03:03.938Z,94.30
2017-10-30T03:05:31.876Z,94.20
2017-10-30T03:07:59.388Z,94.20
2017-10-30T03:10:27.351Z,94.50
2017-10-30T03:12:54.879Z,94.60
2017-10-30T03:15:22.421Z,94.80
2017-10-30T03:17:49.960Z,94.90
2017-10-30T03:20:17.490Z,95.40
2017-10-30T03:22:45.047Z,95.40
2017-10-30T03:25:12.577Z,95.40
2017-10-30T03:27:40.122Z,95.70
2017-10-30T03:30:07.659Z,95.80
2017-10-30T03:32:35.228Z,96.20
2017-10-30T03:35:02.758Z,96.30
2017-10-30T03:37:30.290Z,96.40
2017-10-30T03:39:57.864Z,96.30
2017-10-30T03:42:25.397Z,95.80
2017-10-30T03:44:52.958Z,95.70
2017-10-30T03:47:20.487Z,95.20
2017-10-30T03:49:48.028Z,95.30
2017-10-30T03:52:15.548Z,95.00
2017-10-30T03:54:43.114Z,95.10
2017-10-30T03:57:10.659Z,95.80
2017-10-30T03:59:38.177Z,95.80
2017-10-30T04:02:05.716Z,95.80
2017-10-30T04:04:33.241Z,95.30
2017-10-30T04:07:00.814Z,95.20
2017-10-30T04:09:28.754Z,95.00
2017-10-30T04:11:56.277Z,95.00
2017-10-30T04:14:23.825Z,95.10
2017-10-30T04:16:51.368Z,95.20
2017-10-30T04:19:18.931Z,95.20
2017-10-30T04:21:46.462Z,95.20
2017-10-30T04:24:14.009Z,95.10
2017-10-30T04:26:41.565Z,94.60
2017-10-30T04:29:09.090Z,94.50
2017-10-30T04:31:36.650Z,94.20
2017-10-30T04:34:04.177Z,94.30
2017-10-30T04:36:31.701Z,94.40
2017-10-30T04:38:59.254Z,94.50
2017-10-30T04:41:26.782Z,94.70
2017-10-30T04:43:54.343Z,94.20
2017-10-30T04:46:21.872Z,93.90
2017-10-30T04:48:49.386Z,93.70
2017-10-30T04:51:16.937Z,93.90
2017-10-30T04:53:44.472Z,93.90
2017-10-30T04:56:12.407Z,94.30
2017-10-30T04:58:39.933Z,94.30
2017-10-30T05:01:07.893Z,94.50
2017-10-30T05:03:35.426Z,94.50
2017-10-30T05:06:02.998Z,94.50
2017-10-30T05:08:30.540Z,94.70
2017-10-30T05:10:58.075Z,94.70
2017-10-30T05:13:25.636Z,94.70
2017-10-30T05:15:53.214Z,94.90
2017-10-30T05:18:20.783Z,95.50
2017-10-30T05:20:48.319Z,95.80
2017-10-30T05:23:15.837Z,95.70
2017-10-30T05:25:43.378Z,95.70
2017-10-30T05:28:10.906Z,95.80
2017-10-30T05:30:38.849Z,95.60
2017-10-30T05:33:06.361Z,95.60
2017-10-30T05:35:33.913Z,95.70
2017-10-30T05:38:01.842Z,96.10
2017-10-30T05:40:29.381Z,96.10
2017-10-30T05:42:57.314Z,96.40
2017-10-30T05:45:24.838Z,96.40
2017-10-30T05:47:52.378Z,96.40
2017-10-30T05:50:19.901Z,96.50
2017-10-30T05:52:47.458Z,96.70
2017-10-30T05:55:14.996Z,96.80
2017-10-30T05:57:42.521Z,96.80
2017-10-30T06:00:10.067Z,97.00
2017-10-30T06:02:37.602Z,97.60
2017-10-30T06:05:05.139Z,97.50
2017-10-30T06:07:32.672Z,97.30
2017-10-30T06:10:00.222Z,97.10
2017-10-30T06:12:27.751Z,96.90
2017-10-30T06:14:55.321Z,96.50
2017-10-30T06:17:22.836Z,96.30
2017-10-30T06:19:50.363Z,96.50
2017-10-30T06:22:17.910Z,96.20
2017-10-30T06:24:45.434Z,96.20
2017-10-30T06:27:12.990Z,96.10
2017-10-30T06:29:40.581Z,96.20
2017-10-30T06:32:08.144Z,95.70
2017-10-30T06:34:35.674Z,95.90
2017-10-30T06:37:03.205Z,95.90
2017-10-30T06:39:30.776Z,95.80
2017-10-30T06:41:58.335Z,95.80
2017-10-30T06:44:25.865Z,95.60
2017-10-30T06:46:53.390Z,95.50
2017-10-30T06:49:20.939Z,95.30
2017-10-30T06:51:48.477Z,95.20
2017-10-30T06:54:16.008Z,95.30
2017-10-30T06:56:43.954Z,95.50
2017-10-30T06:59:11.481Z,95.50
2017-10-30T07:01:39.422Z,95.40
2017-10-30T07:04:06.951Z,95.40
2017-10-30T07:06:34.499Z,95.60
2017-10-30T07:09:02.430Z,96.30
2017-10-30T07:11:29.990Z,96.30
2017-10-30T07:13:57.519Z,96.60
2017-10-30T07:16:25.436Z,96.90
2017-10-30T07:18:52.983Z,96.90
2017-10-30T07:21:20.912Z,97.40
2017-10-30T07:23:48.474Z,97.40
2017-10-30T07:26:15.991Z,97.20
2017-10-30T07:28:43.963Z,96.40
2017-10-30T07:31:11.492Z,96.40
2017-10-30T07:33:39.014Z,96.80
2017-10-30T07:36:07.027Z,95.80
2017-10-30T07:38:34.546Z,95.80
2017-10-30T07:41:02.085Z,95.40
2017-10-30T07:43:29.604Z,95.30
2017-10-30T07:45:57.147Z,95.20
2017-10-30T07:48:24.664Z,95.20
2017-10-30T07:50:52.598Z,94.80
2017-10-30T07:53:20.113Z,94.80
2017-10-30T07:55:48.046Z,94.70
2017-10-30T07:58:15.569Z,94.70
2017-10-30T08:00:43.124Z,94.60
2017-10-30T08:03:11.043Z,94.40
2017-10-30T08:05:38.569Z,94.40
2017-10-30T08:08:06.118Z,94.70
2017-10-30T08:10:33.661Z,94.40
2017-10-30T08:13:01.199Z,94.40
2017-10-30T08:15:29.109Z,94.30
2017-10-30T08:17:56.658Z,94.20
2017-10-30T08:20:24.191Z,94.40
2017-10-30T08:22:51.734Z,94.70
2017-10-30T08:25:19.286Z,94.50
2017-10-30T08:27:46.866Z,94.60
2017-10-30T08:30:14.443Z,94.70
2017-10-30T08:32:41.995Z,93.90
2017-10-30T08:35:09.522Z,93.80
2017-10-30T08:37:37.078Z,93.90
2017-10-30T08:40:04.619Z,93.70
2017-10-30T08:42:32.178Z,93.90
2017-10-30T08:44:59.705Z,93.00
2017-10-30T08:47:27.242Z,92.90
2017-10-30T08:49:54.772Z,93.10
2017-10-30T08:52:22.737Z,93.20
2017-10-30T08:54:50.258Z,93.20
2017-10-30T08:57:17.795Z,93.00
2017-10-30T08:59:45.337Z,92.90
2017-10-30T09:02:12.868Z,92.60
2017-10-30T09:04:40.422Z,92.50
2017-10-30T09:07:07.995Z,92.20
2017-10-30T09:09:35.931Z,91.30
2017-10-30T09:12:03.475Z,91.30
2017-10-30T09:14:31.055Z,90.40
2017-10-30T09:16:58.573Z,90.80
2017-10-30T09:19:26.127Z,88.60
2017-10-30T09:21:53.648Z,88.40
2017-10-30T09:24:21.197Z,88.60
2017-10-30T09:26:48.723Z,88.60
2017-10-30T09:29:16.275Z,88.30
2017-10-30T09:31:43.825Z,87.40
2017-10-30T09:34:11.353Z,86.50
2017-10-30T09:36:38.874Z,86.30
2017-10-30T09:39:06.462Z,85.60
2017-10-30T09:41:33.992Z,86.30
2017-10-30T09:44:01.951Z,83.90
2017-10-30T09:46:29.482Z,83.90
2017-10-30T09:48:57.003Z,84.40
2017-10-30T09:51:24.950Z,83.00
2017-10-30T09:53:52.475Z,83.00
2017-10-30T09:56:20.452Z,83.80
2017-10-30T09:58:48.367Z,83.30
2017-10-30T10:01:15.993Z,83.30
2017-10-30T10:03:43.513Z,83.20
2017-10-30T10:06:11.145Z,84.10
2017-10-30T10:08:39.073Z,82.30
2017-10-30T10:11:06.647Z,82.40
2017-10-30T10:13:34.221Z,82.20
2017-10-30T10:16:01.766Z,82.70
2017-10-30T10:18:29.297Z,82.60
2017-10-30T10:20:56.837Z,82.90
2017-10-30T10:23:24.361Z,80.60
2017-10-30T10:25:52.315Z,80.90
2017-10-30T10:28:19.855Z,80.90
2017-10-30T10:30:47.420Z,81.80
2017-10-30T10:33:14.944Z,80.40
2017-10-30T10:35:42.468Z,79.20
2017-10-30T10:38:10.008Z,78.70
2017-10-30T10:40:37.546Z,79.50
2017-10-30T10:43:05.095Z,78.90
2017-10-30T10:45:32.642Z,77.80
2017-10-30T10:48:00.179Z,79.00
2017-10-30T10:50:27.720Z,78.30
2017-10-30T10:52:55.260Z,77.10
2017-10-30T10:55:22.815Z,76.60
2017-10-30T10:57:50.365Z,78.60
2017-10-30T11:00:18.286Z,77.60
2017-10-30T11:02:45.830Z,77.60
2017-10-30T11:05:13.357Z,77.50
2017-10-30T11:07:40.907Z,78.90
2017-10-30T11:10:08.439Z,79.20
2017-10-30T11:12:36.379Z,80.20
2017-10-30T11:15:03.894Z,80.10
2017-10-30T11:17:31.433Z,79.10
2017-10-30T11:19:58.949Z,77.80
2017-10-30T11:22:26.511Z,78.20
2017-10-30T11:24:54.041Z,77.40
2017-10-30T11:27:21.581Z,76.10
2017-10-30T11:29:49.130Z,77.30
2017-10-30T11:32:16.659Z,78.00
2017-10-30T11:34:44.197Z,78.00
2017-10-30T11:37:11.721Z,78.90
2017-10-30T11:39:39.657Z,80.20
2017-10-30T11:42:07.184Z,80.20
2017-10-30T11:44:34.730Z,78.90
2017-10-30T11:47:02.259Z,79.00
2017-10-30T11:49:29.810Z,79.40
2017-10-30T11:51:57.356Z,80.20
2017-10-30T11:54:25.290Z,78.20
2017-10-30T11:56:52.812Z,78.20
2017-10-30T11:59:20.765Z,78.00
2017-10-30T12:01:48.300Z,78.00
2017-10-30T12:04:15.837Z,77.40
2017-10-30T12:06:43.744Z,78.00
2017-10-30T12:09:11.293Z,78.00
2017-10-30T12:11:39.222Z,76.40
2017-10-30T12:14:06.791Z,76.40
2017-10-30T12:16:34.317Z,73.40
2017-10-30T12:19:02.237Z,72.20
2017-10-30T12:21:29.804Z,72.20
2017-10-30T12:23:57.337Z,72.80
2017-10-30T12:26:25.272Z,73.70
2017-10-30T12:28:52.818Z,73.80
2017-10-30T12:31:20.352Z,74.70
2017-10-30T12:33:48.286Z,74.10
2017-10-30T12:36:15.841Z,74.10
2017-10-30T12:38:43.377Z,72.20
2017-10-30T12:41:10.948Z,73.20
2017-10-30T12:43:38.876Z,72.40
2017-10-30T12:46:06.420Z,72.40
2017-10-30T12:48:33.953Z,74.20
2017-10-30T12:51:01.512Z,73.40
2017-10-30T12:53:29.036Z,74.60
2017-10-30T12:55:56.582Z,74.80
2017-10-30T12:58:24.131Z,74.80
2017-10-30T13:00:51.674Z,75.90
2017-10-30T13:03:19.197Z,76.40
2017-10-30T13:05:46.731Z,75.80
2017-10-30T13:08:14.294Z,76.30
2017-10-30T13:10:42.413Z,75.60
2017-10-30T13:13:09.967Z,75.90
2017-10-30T13:15:37.501Z,74.60
2017-10-30T13:18:05.050Z,74.50
2017-10-30T13:20:32.579Z,75.20
2017-10-30T13:23:00.127Z,74.40
2017-10-30T13:25:27.649Z,73.30
2017-10-30T13:27:55.191Z,73.40
2017-10-30T13:30:22.708Z,73.40
2017-10-30T13:32:50.634Z,75.10
2017-10-30T13:35:18.169Z,75.00
2017-10-30T13:37:45.717Z,74.70
2017-10-30T13:40:13.641Z,72.90
2017-10-30T13:42:41.208Z,72.90
2017-10-30T13:45:08.788Z,73.20
2017-10-30T13:47:36.340Z,73.10
2017-10-30T13:50:03.873Z,73.60
2017-10-30T13:52:31.456Z,72.40
2017-10-30T13:54:58.985Z,72.50
2017-10-30T13:57:26.507Z,72.80
2017-10-30T13:59:54.446Z,73.40
2017-10-30T14:02:21.978Z,73.40
2017-10-30T14:04:49.516Z,74.10
2017-10-30T14:07:17.041Z,72.80
2017-10-30T14:09:44.578Z,73.30
2017-10-30T14:12:12.509Z,73.60
2017-10-30T14:14:40.058Z,73.70
2017-10-30T14:17:07.591Z,74.30
2017-10-30T14:19:35.149Z,74.30
2017-10-30T14:22:02.664Z,74.10
2017-10-30T14:24:30.218Z,74.20
2017-10-30T14:26:57.733Z,74.50
2017-10-30T14:29:25.281Z,74.70
2017-10-30T14:31:52.807Z,75.00
2017-10-30T14:34:20.357Z,74.50
2017-10-30T14:36:47.892Z,73.70
2017-10-30T14:39:16.290Z,74.30
2017-10-30T14:41:43.812Z,73.80
2017-10-30T14:44:11.348Z,73.10
2017-10-30T14:46:38.873Z,73.10
2017-10-30T14:49:06.802Z,74.20
2017-10-30T14:51:34.343Z,74.20
2017-10-30T14:54:01.872Z,74.70
2017-10-30T14:56:33.240Z,73.90
2017-10-30T14:59:00.765Z,75.10
2017-10-30T15:01:28.332Z,73.60
2017-10-30T15:03:55.857Z,73.50
2017-10-30T15:06:23.405Z,74.30
2017-10-30T15:08:50.926Z,73.50
2017-10-30T15:11:18.461Z,74.30
2017-10-30T15:13:45.983Z,74.30
2017-10-30T15:16:13.522Z,75.20
2017-10-30T15:18:41.437Z,75.60
2017-10-30T15:21:08.980Z,75.50
2017-10-30T15:23:36.898Z,75.80
2017-10-30T15:26:04.474Z,75.80
2017-10-30T15:28:32.031Z,75.10
2017-10-30T15:30:59.603Z,75.40
2017-10-30T15:33:27.131Z,76.10
2017-10-30T15:35:54.688Z,76.50
2017-10-30T15:38:22.206Z,76.70
2017-10-30T15:40:49.726Z,77.40
2017-10-30T15:43:17.262Z,77.50
2017-10-30T15:45:44.794Z,76.60
2017-10-30T15:48:12.335Z,77.30
2017-10-30T15:50:39.845Z,76.70
2017-10-30T15:53:07.415Z,76.50
2017-10-30T15:55:35.339Z,75.70
2017-10-30T15:58:02.926Z,75.70
2017-10-30T16:00:30.453Z,76.70
2017-10-30T16:02:58.009Z,76.90
2017-10-30T16:05:25.523Z,76.90
2017-10-30T16:07:53.065Z,76.60
2017-10-30T16:10:20.590Z,77.30
2017-10-30T16:12:48.130Z,78.70
2017-10-30T16:15:15.650Z,79.20
2017-10-30T16:17:43.209Z,79.30
2017-10-30T16:20:10.740Z,79.00
2017-10-30T16:22:38.294Z,78.90
2017-10-30T16:25:05.830Z,79.50
2017-10-30T16:27:33.358Z,79.60
2017-10-30T16:30:00.897Z,80.10
2017-10-30T16:32:28.820Z,79.70
2017-10-30T16:34:56.359Z,79.70
2017-10-30T16:37:24.301Z,80.20
2017-10-30T16:39:51.833Z,80.10
2017-10-30T16:42:19.348Z,79.90
2017-10-30T16:44:46.889Z,79.40
2017-10-30T16:47:14.401Z,80.40
2017-10-30T16:49:41.941Z,80.30
2017-10-30T16:52:09.468Z,81.20
2017-10-30T16:54:37.008Z,81.00
2017-10-30T16:57:04.536Z,81.30
2017-10-30T16:59:32.094Z,81.30
2017-10-30T17:01:59.614Z,81.50
2017-10-30T17:04:27.167Z,81.20
2017-10-30T17:06:54.698Z,81.30
2017-10-30T17:09:22.263Z,81.20
2017-10-30T17:11:50.173Z,81.60
2017-10-30T17:14:17.729Z,81.60
2017-10-30T17:16:45.251Z,81.50
2017-10-30T17:19:12.768Z,81.70
2017-10-30T17:21:40.302Z,82.00
2017-10-30T17:24:13.666Z,81.90
2017-10-30T17:26:41.205Z,82.00
2017-10-30T17:29:08.724Z,82.10
2017-10-30T17:31:36.270Z,82.20
2017-10-30T17:34:03.807Z,82.70
2017-10-30T17:36:31.802Z,82.90
2017-10-30T17:38:59.722Z,82.90
2017-10-30T17:41:27.262Z,82.90
2017-10-30T17:43:54.790Z,82.80
2017-10-30T17:46:22.322Z,83.40
2017-10-30T17:48:49.835Z,83.50
2017-10-30T17:51:17.391Z,83.60
2017-10-30T17:53:44.908Z,83.70
2017-10-30T17:56:12.842Z,84.60
2017-10-30T17:58:40.377Z,84.60
2017-10-30T18:01:07.918Z,85.00
2017-10-30T18:03:35.447Z,85.10
2017-10-30T18:06:02.997Z,85.00
2017-10-30T18:08:30.583Z,85.00
2017-10-30T18:10:58.118Z,85.10
2017-10-30T18:13:26.080Z,86.50
2017-10-30T18:15:53.621Z,86.50
2017-10-30T18:18:21.206Z,86.60
2017-10-30T18:20:48.742Z,86.60
2017-10-30T18:23:16.284Z,86.80
2017-10-30T18:25:44.205Z,87.10
2017-10-30T18:28:11.744Z,87.10
2017-10-30T18:30:39.249Z,87.10
2017-10-30T18:33:06.796Z,86.80
2017-10-30T18:35:34.344Z,86.90
2017-10-30T18:38:02.274Z,86.70
2017-10-30T18:40:29.798Z,86.70
2017-10-30T18:42:57.749Z,87.70
2017-10-30T18:45:25.298Z,87.70
2017-10-30T18:47:52.838Z,87.40
2017-10-30T18:50:20.373Z,87.20
2017-10-30T18:52:47.950Z,88.00
2017-10-30T18:55:15.516Z,87.70
2017-10-30T18:57:43.079Z,87.70
2017-10-30T19:00:10.615Z,87.60
2017-10-30T19:02:38.138Z,87.80
2017-10-30T19:05:05.674Z,88.00
2017-10-30T19:07:33.243Z,88.30
2017-10-30T19:10:00.780Z,87.90
2017-10-30T19:12:28.327Z,88.20
2017-10-30T19:14:55.915Z,88.10
2017-10-30T19:17:23.454Z,88.40
2017-10-30T19:19:51.001Z,88.30
2017-10-30T19:22:18.526Z,88.50
2017-10-30T19:24:46.491Z,89.40
2017-10-30T19:27:14.011Z,89.30
2017-10-30T19:29:41.560Z,88.60
2017-10-30T19:32:09.113Z,88.30
2017-10-30T19:34:37.074Z,89.10
2017-10-30T19:37:04.616Z,89.10
2017-10-30T19:39:32.162Z,89.10
2017-10-30T19:41:59.702Z,89.10
2017-10-30T19:44:27.315Z,89.20
2017-10-30T19:46:54.864Z,89.10
2017-10-30T19:49:22.776Z,90.20
2017-10-30T19:51:50.320Z,90.20
2017-10-30T19:54:17.840Z,89.40
2017-10-30T19:56:45.380Z,89.50
2017-10-30T19:59:12.926Z,89.50
2017-10-30T20:01:40.870Z,89.70
2017-10-30T20:04:08.399Z,89.80
2017-10-30T20:06:41.652Z,90.20
2017-10-30T20:09:14.891Z,89.50
2017-10-30T20:11:48.274Z,89.80
2017-10-30T20:14:15.811Z,89.90
2017-10-30T20:16:43.348Z,89.70
2017-10-30T20:19:10.872Z,89.70
2017-10-30T20:21:38.412Z,89.80
2017-10-30T20:24:05.945Z,89.70
2017-10-30T20:26:33.889Z,89.60
2017-10-30T20:29:01.418Z,89.60
2017-10-30T20:31:28.962Z,89.70
2017-10-30T20:33:56.495Z,89.50
2017-10-30T20:36:24.045Z,89.70
2017-10-30T20:38:51.578Z,89.90
2017-10-30T20:41:19.126Z,89.60
2017-10-30T20:43:46.644Z,89.80
2017-10-30T20:46:14.187Z,90.20
2017-10-30T20:48:41.729Z,90.20
2017-10-30T20:51:09.256Z,90.30
2017-10-30T20:53:36.805Z,90.30
2017-10-30T20:56:04.738Z,90.30
2017-10-30T20:58:32.314Z,90.30
2017-10-30T21:00:59.844Z,90.70
2017-10-30T21:03:27.792Z,90.30
2017-10-30T21:05:55.326Z,90.40
2017-10-30T21:08:22.865Z,90.10
2017-10-30T21:10:50.788Z,90.10
2017-10-30T21:13:18.339Z,90.00
2017-10-30T21:15:45.887Z,90.00
2017-10-30T21:18:13.855Z,90.40
2017-10-30T21:20:42.355Z,90.20
2017-10-30T21:23:09.888Z,90.20
2017-10-30T21:25:37.426Z,90.50
2017-10-30T21:28:04.959Z,90.80
2017-10-30T21:30:32.511Z,91.10
2017-10-30T21:33:00.035Z,91.10
2017-10-30T21:35:27.588Z,91.20
2017-10-30T21:37:55.524Z,91.20
2017-10-30T21:40:23.105Z,91.20
2017-10-30T21:42:50.637Z,91.00
2017-10-30T21:45:18.162Z,90.90
2017-10-30T21:47:46.233Z,91.00
2017-10-30T21:50:13.772Z,91.00
2017-10-30T21:52:41.332Z,91.40
2017-10-30T21:55:08.864Z,91.70
2017-10-30T21:57:36.488Z,91.50
2017-10-30T22:00:04.081Z,91.20
2017-10-30T22:02:31.690Z,91.00
2017-10-30T22:04:59.977Z,91.10
2017-10-30T22:07:27.500Z,91.10
2017-10-30T22:09:55.068Z,91.30
2017-10-30T22:12:22.590Z,91.50
2017-10-30T22:14:50.804Z,91.10
2017-10-30T22:17:18.455Z,91.10
2017-10-30T22:19:46.406Z,92.00
2017-10-30T22:22:13.927Z,92.00
2017-10-30T22:24:41.452Z,92.10
2017-10-30T22:27:09.004Z,92.30
2017-10-30T22:29:36.522Z,92.20
2017-10-30T22:32:04.062Z,91.70
2017-10-30T22:34:31.579Z,91.70
2017-10-30T22:36:59.230Z,91.90
2017-10-30T22:39:26.762Z,91.90
2017-10-30T22:41:54.277Z,91.80
2017-10-30T22:44:21.914Z,91.70
2017-10-30T22:46:49.470Z,91.60
2017-10-30T22:49:17.007Z,91.60
2017-10-30T22:51:44.932Z,92.10
2017-10-30T22:54:12.488Z,92.10
2017-10-30T22:56:40.030Z,92.00
2017-10-30T22:59:08.116Z,92.10
2017-10-30T23:01:35.692Z,92.10
2017-10-30T23:04:04.025Z,92.30
2017-10-30T23:06:31.566Z,92.80
2017-10-30T23:08:59.091Z,92.60
2017-10-30T23:11:26.638Z,92.70
2017-10-30T23:13:54.165Z,92.50
2017-10-30T23:16:21.772Z,92.40
2017-10-30T23:18:49.294Z,92.40
2017-10-30T23:21:16.889Z,92.30
2017-10-30T23:23:44.409Z,92.40
2017-10-30T23:26:11.951Z,92.50
2017-10-30T23:28:39.497Z,92.60
2017-10-30T23:31:07.419Z,92.70
2017-10-30T23:33:34.962Z,92.70
2017-10-30T23:36:02.494Z,92.60
2017-10-30T23:38:30.040Z,92.90
2017-10-30T23:40:57.556Z,93.00
2017-10-30T23:43:25.509Z,94.00
2017-10-30T23:45:53.056Z,94.00
2017-10-30T23:48:20.586Z,94.10
2017-10-30T23:50:48.528Z,94.20
2017-10-30T23:53:16.055Z,94.20
2017-10-30T23:55:43.603Z,93.70
2017-10-30T23:58:11.133Z,93.80
